Latest Weather Observations for Swan Hill

IDV60801

Issued at 6:05 pm EST Tuesday 23 September 2014 (issued every 30 minutes, with the page automatically refreshed every 10 minutes)

About weather observations | Map of weather stations | Latest weather observations for VIC | Other Formats
Station Details ID: 077094 Name: SWAN HILL AERODROME Lat: -35.38 Lon: 143.54 Height: 71.0 m
Data from the previous 72 hours. | See also: Recent months at Swan Hill
Date/Time
EST
Temp
°C
App
Temp
°C
Dew
Point
Rel
Hum
%
Delta-T
°C
Wind Press
QNH
hPa
Press
MSL
hPa
Rain
since 9 am
mm
Dir
 
Spd
km/h
Gust
km/h
Spd
kts
Gust
kts
23/06:00pm 21.7 18.0 4.2 31 8.5 NE 13 17 7 9 1019.7 1019.7 0.0
23/05:30pm 23.4 18.9 2.0 24 10.1 NE 15 24 8 13 1019.7 - 0.0
23/05:00pm 25.1 19.1 1.0 20 11.3 NE 22 33 12 18 1019.7 - 0.0
23/04:30pm 25.8 20.1 0.6 19 11.8 NNE 20 37 11 20 1019.7 - 0.0
23/04:00pm 26.2 20.1 0.3 18 12.1 NNE 22 32 12 17 1020.0 - 0.0
23/03:30pm 26.4 20.6 2.3 21 11.7 NNE 22 33 12 18 1020.4 - 0.0
23/03:00pm 26.2 19.3 0.3 18 12.1 NNE 26 35 14 19 1020.8 1020.8 0.0
23/02:30pm 26.5 18.9 0.5 18 12.2 N 30 39 16 21 1021.1 - 0.0
23/02:00pm 27.1 21.7 2.2 20 12.1 NNE 20 35 11 19 1021.5 - 0.0
23/01:30pm 26.1 20.2 1.6 20 11.7 NNE 22 32 12 17 1022.1 - 0.0
23/01:00pm 25.4 19.4 3.1 23 10.9 NNE 24 32 13 17 1022.6 - 0.0
23/12:30pm 25.3 18.8 2.5 22 11.0 NNE 26 41 14 22 1023.4 - 0.0
23/12:00pm 24.7 17.3 1.6 22 10.9 NNE 30 39 16 21 1024.0 1024.0 0.0
23/11:30am 24.6 18.7 1.8 22 10.8 N 22 30 12 16 1024.6 - 0.0
23/11:00am 23.3 17.8 1.7 24 10.2 N 20 30 11 16 1025.2 - 0.0
23/10:30am 23.4 18.7 3.0 26 9.8 N 17 22 9 12 1025.6 - 0.0
23/10:00am 21.8 18.0 3.7 30 8.7 N 13 19 7 10 1026.0 - 0.0
23/09:30am 20.3 16.5 3.7 33 7.9 N 13 19 7 10 1026.2 - 0.0
23/09:00am 19.5 16.7 5.1 38 7.0 NE 9 11 5 6 1026.3 1026.4 0.0
23/08:30am 16.4 13.5 4.4 45 5.6 NE 9 11 5 6 1026.4 - 0.0
23/08:00am 14.3 11.7 4.0 50 4.7 NE 7 9 4 5 1026.3 - 0.0
23/07:30am 12.1 9.4 3.5 55 3.8 ENE 7 11 4 6 1026.1 - 0.0
23/07:00am 10.0 6.6 1.9 57 3.4 ENE 9 11 5 6 1025.8 - 0.0
23/06:30am 8.3 4.5 1.7 63 2.7 NE 11 13 6 7 1025.7 - 0.0
23/06:00am 7.4 4.1 2.3 70 2.1 NE 9 11 5 6 1025.5 1025.5 0.0
23/05:30am 7.9 4.6 2.6 69 2.2 NE 9 11 5 6 1025.3 - 0.0
23/05:00am 8.5 4.4 2.0 63 2.7 NE 13 15 7 8 1025.2 - 0.0
23/04:30am 8.5 4.0 2.3 65 2.6 NE 15 17 8 9 1025.2 - 0.0
23/04:00am 8.4 5.1 2.4 66 2.5 ENE 9 13 5 7 1025.1 - 0.0
23/03:30am 8.5 5.7 3.1 69 2.3 ENE 7 9 4 5 1025.2 - 0.0
23/03:00am 9.8 7.0 3.1 63 2.9 ENE 7 11 4 6 1025.1 1025.1 0.0
23/02:30am 11.2 6.8 2.9 56 3.6 ENE 15 20 8 11 1025.3 - 0.0
23/02:00am 7.8 4.4 1.7 65 2.5 E 9 13 5 7 1025.6 - 0.0
23/01:30am 7.3 4.1 1.0 64 2.5 E 7 9 4 5 1025.8 - 0.0
23/01:00am 7.4 4.2 0.6 62 2.7 E 7 9 4 5 1026.0 - 0.0
23/12:30am 8.3 4.7 0.8 59 3.0 E 9 11 5 6 1026.1 - 0.0
23/12:00am 8.2 5.0 1.0 60 2.9 E 7 9 4 5 1026.2 1026.2 0.0
 
Date/Time
EST
Temp
°C
App
Temp
°C
Dew
Point
Rel
Hum
%
Delta-T
°C
Wind Press
QNH
hPa
Press
MSL
hPa
Rain
since 9 am
mm
Dir
 
Spd
km/h
Gust
km/h
Spd
kts
Gust
kts
22/11:30pm 7.8 4.6 0.8 61 2.8 E 7 7 4 4 1026.3 - 0.0
22/11:00pm 8.8 5.2 0.9 57 3.2 E 9 11 5 6 1026.3 - 0.0
22/10:30pm 9.2 5.8 1.7 59 3.1 E 9 9 5 5 1026.5 - 0.0
22/10:00pm 9.6 6.7 1.3 56 3.4 E 6 9 3 5 1026.4 - 0.0
22/09:30pm 10.7 7.2 1.0 51 4.0 E 9 11 5 6 1026.3 - 0.0
22/09:00pm 11.3 7.7 0.9 48 4.3 E 9 11 5 6 1026.0 1026.0 0.0
22/08:30pm 13.0 9.5 1.2 44 5.0 E 9 11 5 6 1025.9 - 0.0
22/08:00pm 13.6 10.4 0.8 41 5.4 E 7 9 4 5 1025.7 - 0.0
22/07:30pm 15.2 11.9 0.4 36 6.3 E 7 9 4 5 1025.3 - 0.0
22/07:00pm 17.3 14.0 -0.2 30 7.5 E 7 9 4 5 1025.0 - 0.0
22/06:30pm 19.4 15.6 -0.7 26 8.7 E 9 11 5 6 1024.7 - 0.0
22/06:00pm 21.3 17.4 -1.2 22 9.8 E 9 13 5 7 1024.5 1024.5 0.0
22/05:30pm 23.1 18.8 -1.9 19 11.0 E 11 19 6 10 1024.4 - 0.0
22/05:00pm 23.7 19.4 -1.8 18 11.3 NE 11 17 6 9 1024.4 - 0.0
22/04:30pm 24.2 19.6 -4.3 15 12.0 NE 11 17 6 9 1024.2 - 0.0
22/04:00pm 24.2 18.9 -3.8 15 12.0 ENE 15 20 8 11 1024.4 - 0.0
22/03:30pm 24.5 19.3 -3.0 16 11.9 NE 15 22 8 12 1024.7 - 0.0
22/03:00pm 25.3 21.2 -2.9 15 12.3 N 9 17 5 9 1025.0 1025.0 0.0
22/02:30pm 24.6 19.1 -2.3 16 11.9 NE 17 24 9 13 1025.3 - 0.0
22/02:00pm 24.6 19.0 -3.3 15 12.1 N 17 24 9 13 1025.6 - 0.0
22/01:30pm 24.1 19.1 -1.3 18 11.4 NE 15 30 8 16 1025.9 - 0.0
22/01:00pm 23.5 17.8 -1.0 19 11.0 NNE 19 26 10 14 1026.4 - 0.0
22/12:30pm 23.2 18.1 -2.1 18 11.1 N 15 24 8 13 1027.0 - 0.0
22/12:00pm 22.8 18.3 -0.5 21 10.4 NNE 13 24 7 13 1027.5 1027.6 0.0
22/11:30am 22.1 17.8 0.8 24 9.8 NE 13 22 7 12 1028.0 - 0.0
22/11:00am 21.0 16.4 1.6 27 8.9 NE 15 20 8 11 1028.4 - 0.0
22/10:30am 20.1 16.0 4.5 36 7.6 ENE 15 24 8 13 1028.6 - 0.0
22/10:00am 19.4 15.1 5.2 39 6.9 ENE 17 26 9 14 1029.0 - 0.0
22/09:30am 17.4 14.1 6.6 49 5.4 ENE 13 20 7 11 1029.3 - 0.0
22/09:00am 14.3 11.4 6.6 60 3.7 ENE 11 17 6 9 1029.4 1029.5 0.0
22/08:30am 12.0 9.0 6.2 67 2.7 E 11 15 6 8 1029.6 - 0.0
22/08:00am 8.9 6.1 5.3 78 1.6 SE 9 13 5 7 1029.7 - 0.0
22/07:30am 5.8 3.1 3.6 86 0.9 SE 7 11 4 6 1029.4 - 0.0
22/07:00am 3.5 0.6 2.5 93 0.4 SE 7 11 4 6 1029.1 - 0.0
22/06:30am 2.3 -1.6 1.2 92 0.4 SE 11 13 6 7 1028.7 - 0.0
22/06:00am 2.0 -1.9 1.2 94 0.3 SE 11 13 6 7 1028.3 1028.5 0.0
22/05:30am 2.5 -1.3 1.5 93 0.4 SE 11 13 6 7 1028.1 - 0.0
22/05:00am 2.6 -0.9 1.3 91 0.5 SE 9 13 5 7 1027.9 - 0.0
22/04:30am 2.9 -0.5 1.9 93 0.4 SE 9 11 5 6 1027.7 - 0.0
22/04:00am 3.1 -0.7 1.8 91 0.5 SE 11 13 6 7 1027.5 - 0.0
22/03:30am 3.0 -0.4 1.7 91 0.5 ESE 9 13 5 7 1027.6 - 0.0
22/03:00am 3.0 -0.5 1.4 89 0.6 ESE 9 11 5 6 1027.6 1027.7 0.0
22/02:30am 3.4 0.3 1.3 86 0.8 ESE 7 9 4 5 1027.8 - 0.0
22/02:00am 3.8 0.0 1.8 87 0.8 ESE 11 13 6 7 1028.0 - 0.0
22/01:30am 3.6 0.6 1.8 88 0.7 ESE 7 9 4 5 1028.1 - 0.0
22/01:00am 3.6 0.8 1.8 88 0.7 ESE 6 7 3 4 1028.4 - 0.0
22/12:30am 4.0 1.2 2.0 87 0.8 ESE 6 7 3 4 1028.3 - 0.0
22/12:00am 4.1 2.3 1.3 82 1.1 CALM 0 0 0 0 1028.5 1028.6 0.0
 
Date/Time
EST
Temp
°C
App
Temp
°C
Dew
Point
Rel
Hum
%
Delta-T
°C
Wind Press
QNH
hPa
Press
MSL
hPa
Rain
since 9 am
mm
Dir
 
Spd
km/h
Gust
km/h
Spd
kts
Gust
kts
21/11:30pm 5.4 3.8 2.4 81 1.2 CALM 0 0 0 0 1028.6 - 0.0
21/11:00pm 5.3 3.5 1.5 76 1.5 CALM 0 0 0 0 1028.6 - 0.0
21/10:30pm 5.6 3.9 2.1 78 1.4 CALM 0 6 0 3 1028.6 - 0.0
21/10:00pm 5.9 3.6 2.5 79 1.4 ESE 4 6 2 3 1028.6 - 0.0
21/09:30pm 6.5 3.6 2.6 76 1.6 ESE 7 9 4 5 1028.4 - 0.0
21/09:00pm 9.2 6.3 2.8 64 2.7 ESE 7 9 4 5 1028.3 1028.4 0.0
21/08:30pm 10.6 7.9 3.8 63 3.0 ESE 7 9 4 5 1028.1 - 0.0
21/08:00pm 11.8 9.0 3.4 56 3.7 ESE 7 9 4 5 1027.8 - 0.0
21/07:30pm 13.8 11.2 4.4 53 4.3 E 7 9 4 5 1027.6 - 0.0
21/07:00pm 14.8 12.2 4.4 49 4.8 ESE 7 9 4 5 1027.4 - 0.0
21/06:30pm 16.3 13.3 4.0 44 5.7 ESE 9 11 5 6 1027.2 - 0.0
21/06:00pm 18.2 15.0 3.3 37 6.9 ESE 9 13 5 7 1026.9 1027.0 0.0
21/05:30pm 19.6 15.5 2.1 31 8.1 ESE 13 17 7 9 1026.8 - 0.0
21/05:00pm 20.7 16.3 0.3 25 9.1 SE 13 17 7 9 1026.8 - 0.0
21/04:30pm 21.5 17.3 -1.2 22 9.9 SSE 11 17 6 9 1026.9 - 0.0
21/04:00pm 21.0 16.4 -1.1 22 9.7 SE 13 20 7 11 1027.1 - 0.0
21/03:30pm 21.6 17.5 -0.2 23 9.8 S 11 20 6 11 1027.3 - 0.0
21/03:00pm 21.4 16.8 -1.1 22 9.8 SSE 13 22 7 12 1027.6 1027.7 0.0
21/02:30pm 20.6 16.7 1.2 27 8.8 E 11 19 6 10 1027.8 - 0.0
21/02:00pm 20.1 16.7 2.0 30 8.4 SE 9 19 5 10 1028.1 - 0.0
21/01:30pm 19.8 15.9 1.1 28 8.5 E 11 17 6 9 1028.5 - 0.0
21/01:00pm 19.8 16.1 2.5 31 8.0 NE 11 15 6 8 1028.9 - 0.0
21/12:30pm 18.4 15.5 2.4 34 7.3 ESE 7 13 4 7 1029.5 - 0.0
21/12:00pm 17.6 14.6 4.2 41 6.3 ENE 9 13 5 7 1029.9 1029.9 0.0
21/11:30am 17.4 14.0 4.2 41 6.2 E 11 15 6 8 1030.2 - 0.0
21/11:00am 16.1 12.7 4.0 44 5.6 E 11 19 6 10 1030.5 - 0.0
21/10:30am 15.6 12.3 4.4 47 5.2 ESE 11 15 6 8 1030.6 - 0.0
21/10:00am 14.4 10.7 4.4 51 4.6 ESE 13 22 7 12 1030.8 - 0.0
21/09:30am 13.7 9.2 4.3 53 4.3 SE 17 24 9 13 1030.9 - 0.0
21/09:00am 11.8 7.3 4.2 59 3.4 SE 17 24 9 13 1030.6 1030.7 0.0
21/08:30am 10.4 5.5 4.0 64 2.8 SE 19 30 10 16 1030.6 - 0.0
21/08:00am 8.4 4.2 4.0 74 1.9 SE 15 20 8 11 1030.4 - 0.0
21/07:30am 6.0 2.5 3.4 83 1.1 SSE 11 15 6 8 1030.2 - 0.0
21/07:00am 3.9 1.0 2.4 90 0.6 SSE 7 9 4 5 1030.1 - 0.0
21/06:30am 3.3 0.3 2.0 91 0.5 SE 7 9 4 5 1029.7 - 0.0
21/06:00am 4.3 0.3 2.6 89 0.7 SSE 13 17 7 9 1029.4 1029.5 0.0
21/05:30am 5.1 0.7 2.9 86 0.9 SSE 15 22 8 12 1029.4 - 0.0
21/05:00am 4.9 0.2 2.9 87 0.8 S 17 22 9 12 1028.9 - 0.0
21/04:30am 2.7 -1.2 1.4 91 0.5 SSE 11 17 6 9 1028.3 - 0.0
21/04:00am 2.6 -0.5 1.6 93 0.4 SSE 7 9 4 5 1027.8 - 0.0
21/03:30am 3.0 -0.4 2.0 93 0.4 SSE 9 11 5 6 1027.7 - 0.0
21/03:00am 3.1 -0.4 1.5 89 0.6 SSE 9 13 5 7 1027.7 1027.8 0.0
21/02:30am 3.4 0.4 2.1 91 0.5 SE 7 11 4 6 1028.1 - 0.0
21/02:00am 3.6 0.2 2.1 90 0.6 SSE 9 9 5 5 1028.3 - 0.0
21/01:30am 4.1 1.1 2.3 88 0.7 SSE 7 7 4 4 1028.5 - 0.0
21/01:00am 4.6 1.7 2.4 86 0.9 SSE 7 9 4 5 1028.9 - 0.0
21/12:30am 4.9 2.2 2.7 86 0.9 SSE 6 7 3 4 1029.0 - 0.0
21/12:00am 4.2 2.1 1.6 83 1.0 SE 2 6 1 3 1028.9 1029.0 0.0
 
Date/Time
EST
Temp
°C
App
Temp
°C
Dew
Point
Rel
Hum
%
Delta-T
°C
Wind Press
QNH
hPa
Press
MSL
hPa
Rain
since 9 am
mm
Dir
 
Spd
km/h
Gust
km/h
Spd
kts
Gust
kts
20/11:30pm 7.2 4.1 3.4 77 1.6 SE 9 13 5 7 1029.0 - 0.0
20/11:00pm 7.8 5.1 3.6 75 1.8 SE 7 13 4 7 1029.0 - 0.0
20/10:30pm 8.1 4.5 2.9 70 2.2 SE 11 15 6 8 1028.8 - 0.0
20/10:00pm 8.3 5.0 2.3 66 2.5 SE 9 13 5 7 1028.8 - 0.0
20/09:30pm 8.9 5.4 1.3 59 3.1 SE 9 13 5 7 1028.6 - 0.0
20/09:00pm 9.7 5.3 0.2 51 3.8 SSE 13 15 7 8 1028.2 1028.3 0.0
20/08:30pm 9.8 5.8 0.7 53 3.7 SSW 11 13 6 7 1027.9 - 0.0
20/08:00pm 9.2 7.3 0.8 55 3.4 CALM 0 0 0 0 1027.4 - 0.0
20/07:30pm 11.7 9.9 1.5 49 4.3 CALM 0 0 0 0 1027.1 - 0.0
20/07:00pm 13.1 10.0 1.4 45 5.0 SSE 7 9 4 5 1026.6 - 0.0
20/06:30pm 15.2 12.0 0.7 37 6.2 SSE 7 11 4 6 1026.4 - 0.0

Other Formats:

Comma delimited format used in spreadsheet applications
http://www.bom.gov.au/fwo/IDV60801/IDV60801.94843.axf

JavaScript Object Notation format (JSON) in row-major order
http://www.bom.gov.au/fwo/IDV60801/IDV60801.94843.json